Hlavní strana
METAR-TAF:

METAR-TAF

Letiště :

Záporoží, Ukrajina

zeměpisná šířka: 47-52-02N, zeměpisná délka: 035-18-59E, výška: 114 m

Aktuální stav počasí

Zpráva byla vytvořena před 1 hodinou a 6 minutami, v 01:00 UTC
Severozápadní vítr 10 kt
Teplota 5°C
Vlhkost vzduchu 81%
Tlak 1015 hPa
Viditelnost 10 km a více
Žádná oblačnost pod 1500 m, nevyskytují se cumulonimby.

METAR: UKDE 090100Z 31005MPS CAVOK 05/02 Q1015 R20/290555 NOSIG

Čas: 05:06 (02:06 UTC)

Předpověď počasí

Zpráva byla vytvořena před 3 hodinami a 4 minutami, v 23:02 UTC
Předpověď platná od 09 v 00 UTC do 09 v 09 UTC
Západoseverozápadní vítr 14 kt
Viditelnost 10 km a více
Oblačno až skoro zataženo ve výšce 1500 ft
Dočasný
od 09 v 00 UTC do 09 v 09 UTC
Severozápadní vítr 19 kt s nárazy do 29 kt

TAF: UKDE 082302Z 0900/0909 30007MPS 9999 BKN015 TX06/0900Z TN04/0903Z TEMPO 0900/0909 32010G15MPS

Stav a předpovědi počasí z více než 4 000 letišť (zprávy METAR a TAF).

Červené a žluté tečky na mapě představují dostupné meteorologické stanice.

Když kurzor umístíte na tečku, zobrazí se název stanice.

Pak kliknutím zobrazíte stav a předpověď počasí.

Chcete-li změnit mapu, kliknutím na zelené tlačítko se znaménkem +mapu přiblížíte, kliknutím na zelené tlačítko se znaménkem – mapu oddálíte a kliknutím na zelené šipky přejdete na sousední mapy.


METAR-TAF: